sensor_id;sensor_type;location;lat;lon;timestamp;temperature;humidity
19449;DHT22;9863;49.404;8.246;2023-05-18T00:01:22;8.50;99.90
19449;DHT22;9863;49.404;8.246;2023-05-18T00:03:49;8.50;99.90
19449;DHT22;9863;49.404;8.246;2023-05-18T00:06:20;8.50;99.90
19449;DHT22;9863;49.404;8.246;2023-05-18T00:08:48;8.50;99.90
19449;DHT22;9863;49.404;8.246;2023-05-18T00:11:15;8.50;99.90
19449;DHT22;9863;49.404;8.246;2023-05-18T00:13:43;8.40;99.90
19449;DHT22;9863;49.404;8.246;2023-05-18T00:16:10;8.40;99.90
19449;DHT22;9863;49.404;8.246;2023-05-18T00:18:39;8.40;99.90
19449;DHT22;9863;49.404;8.246;2023-05-18T00:21:06;8.30;99.90
19449;DHT22;9863;49.404;8.246;2023-05-18T00:23:34;8.40;99.90
19449;DHT22;9863;49.404;8.246;2023-05-18T00:26:05;8.30;99.90
19449;DHT22;9863;49.404;8.246;2023-05-18T00:28:32;8.30;99.90
19449;DHT22;9863;49.404;8.246;2023-05-18T00:30:59;8.30;99.90
19449;DHT22;9863;49.404;8.246;2023-05-18T00:33:26;8.30;99.90
19449;DHT22;9863;49.404;8.246;2023-05-18T00:35:53;8.20;99.90
19449;DHT22;9863;49.404;8.246;2023-05-18T00:38:22;8.20;99.90
19449;DHT22;9863;49.404;8.246;2023-05-18T00:40:50;8.20;99.90
19449;DHT22;9863;49.404;8.246;2023-05-18T00:43:17;8.30;99.90
19449;DHT22;9863;49.404;8.246;2023-05-18T00:45:44;8.20;99.90
19449;DHT22;9863;49.404;8.246;2023-05-18T00:48:11;8.20;99.90
19449;DHT22;9863;49.404;8.246;2023-05-18T00:50:39;8.20;99.90
19449;DHT22;9863;49.404;8.246;2023-05-18T00:53:06;8.10;99.90
19449;DHT22;9863;49.404;8.246;2023-05-18T00:55:36;8.00;99.90
19449;DHT22;9863;49.404;8.246;2023-05-18T00:58:04;8.00;99.90
19449;DHT22;9863;49.404;8.246;2023-05-18T01:00:31;8.00;99.90
19449;DHT22;9863;49.404;8.246;2023-05-18T01:02:59;8.00;99.90
19449;DHT22;9863;49.404;8.246;2023-05-18T01:05:27;8.00;99.90
19449;DHT22;9863;49.404;8.246;2023-05-18T01:07:55;7.90;99.90
19449;DHT22;9863;49.404;8.246;2023-05-18T01:10:23;8.00;99.90
19449;DHT22;9863;49.404;8.246;2023-05-18T01:13:01;7.90;99.90
19449;DHT22;9863;49.404;8.246;2023-05-18T01:15:35;8.00;99.90
19449;DHT22;9863;49.404;8.246;2023-05-18T01:18:19;7.90;99.90
19449;DHT22;9863;49.404;8.246;2023-05-18T01:20:58;7.80;99.90
19449;DHT22;9863;49.404;8.246;2023-05-18T01:26:26;7.80;99.90
19449;DHT22;9863;49.404;8.246;2023-05-18T01:29:00;7.70;99.90
19449;DHT22;9863;49.404;8.246;2023-05-18T01:31:30;7.70;99.90
19449;DHT22;9863;49.404;8.246;2023-05-18T01:36:25;7.70;99.90
19449;DHT22;9863;49.404;8.246;2023-05-18T01:38:53;7.60;99.90
19449;DHT22;9863;49.404;8.246;2023-05-18T01:41:25;7.50;99.90
19449;DHT22;9863;49.404;8.246;2023-05-18T01:49:40;7.50;99.90
19449;DHT22;9863;49.404;8.246;2023-05-18T01:52:26;7.50;99.90
19449;DHT22;9863;49.404;8.246;2023-05-18T01:55:01;7.50;99.90
19449;DHT22;9863;49.404;8.246;2023-05-18T01:57:32;7.40;99.90
19449;DHT22;9863;49.404;8.246;2023-05-18T02:00:00;7.40;99.90
19449;DHT22;9863;49.404;8.246;2023-05-18T02:02:27;7.40;99.90
19449;DHT22;9863;49.404;8.246;2023-05-18T02:04:55;7.40;99.90
19449;DHT22;9863;49.404;8.246;2023-05-18T02:07:22;7.40;99.90
19449;DHT22;9863;49.404;8.246;2023-05-18T02:09:49;7.40;99.90
19449;DHT22;9863;49.404;8.246;2023-05-18T02:12:16;7.40;99.90
19449;DHT22;9863;49.404;8.246;2023-05-18T02:14:44;7.40;99.90
19449;DHT22;9863;49.404;8.246;2023-05-18T02:17:11;7.40;99.90
19449;DHT22;9863;49.404;8.246;2023-05-18T02:20:13;7.30;99.90
19449;DHT22;9863;49.404;8.246;2023-05-18T02:22:44;7.30;99.90
19449;DHT22;9863;49.404;8.246;2023-05-18T02:25:12;7.30;99.90
19449;DHT22;9863;49.404;8.246;2023-05-18T02:27:39;7.30;99.90
19449;DHT22;9863;49.404;8.246;2023-05-18T02:30:08;7.20;99.90
19449;DHT22;9863;49.404;8.246;2023-05-18T02:32:35;7.20;99.90
19449;DHT22;9863;49.404;8.246;2023-05-18T02:35:05;7.30;99.90
19449;DHT22;9863;49.404;8.246;2023-05-18T02:37:34;7.30;99.90
19449;DHT22;9863;49.404;8.246;2023-05-18T02:40:09;7.30;99.90
19449;DHT22;9863;49.404;8.246;2023-05-18T02:42:38;7.20;99.90
19449;DHT22;9863;49.404;8.246;2023-05-18T02:45:06;7.30;99.90
19449;DHT22;9863;49.404;8.246;2023-05-18T02:47:34;7.30;99.90
19449;DHT22;9863;49.404;8.246;2023-05-18T02:50:02;7.30;99.90
19449;DHT22;9863;49.404;8.246;2023-05-18T02:52:29;7.20;99.90
19449;DHT22;9863;49.404;8.246;2023-05-18T02:54:57;7.10;99.90
19449;DHT22;9863;49.404;8.246;2023-05-18T02:57:24;7.10;99.90
19449;DHT22;9863;49.404;8.246;2023-05-18T02:59:52;7.10;99.90
19449;DHT22;9863;49.404;8.246;2023-05-18T03:02:19;7.20;99.90
19449;DHT22;9863;49.404;8.246;2023-05-18T03:04:49;7.20;99.90
19449;DHT22;9863;49.404;8.246;2023-05-18T03:07:23;7.20;99.90
19449;DHT22;9863;49.404;8.246;2023-05-18T03:09:50;7.20;99.90
19449;DHT22;9863;49.404;8.246;2023-05-18T03:14:46;7.20;99.90
19449;DHT22;9863;49.404;8.246;2023-05-18T03:17:13;7.20;99.90
19449;DHT22;9863;49.404;8.246;2023-05-18T03:19:40;7.20;99.90
19449;DHT22;9863;49.404;8.246;2023-05-18T03:22:08;7.20;99.90
19449;DHT22;9863;49.404;8.246;2023-05-18T03:24:36;7.20;99.90
19449;DHT22;9863;49.404;8.246;2023-05-18T03:27:06;7.10;99.90
19449;DHT22;9863;49.404;8.246;2023-05-18T03:29:33;7.30;99.90
19449;DHT22;9863;49.404;8.246;2023-05-18T03:32:00;7.20;99.90
19449;DHT22;9863;49.404;8.246;2023-05-18T03:36:55;7.20;99.90
19449;DHT22;9863;49.404;8.246;2023-05-18T03:39:23;7.30;99.90
19449;DHT22;9863;49.404;8.246;2023-05-18T03:41:50;7.30;99.90
19449;DHT22;9863;49.404;8.246;2023-05-18T03:44:18;7.20;99.90
19449;DHT22;9863;49.404;8.246;2023-05-18T03:46:45;7.20;99.90
19449;DHT22;9863;49.404;8.246;2023-05-18T03:49:12;7.20;99.90
19449;DHT22;9863;49.404;8.246;2023-05-18T03:51:39;7.20;99.90
19449;DHT22;9863;49.404;8.246;2023-05-18T03:56:34;7.10;99.90
19449;DHT22;9863;49.404;8.246;2023-05-18T03:59:01;7.20;99.90
19449;DHT22;9863;49.404;8.246;2023-05-18T04:01:32;7.10;99.90
19449;DHT22;9863;49.404;8.246;2023-05-18T04:03:59;8.00;99.90
19449;DHT22;9863;49.404;8.246;2023-05-18T04:06:27;7.10;99.90
19449;DHT22;9863;49.404;8.246;2023-05-18T04:08:54;7.10;99.90
19449;DHT22;9863;49.404;8.246;2023-05-18T04:11:21;7.10;99.90
19449;DHT22;9863;49.404;8.246;2023-05-18T04:13:48;7.10;99.90
19449;DHT22;9863;49.404;8.246;2023-05-18T04:16:16;7.10;99.90
19449;DHT22;9863;49.404;8.246;2023-05-18T04:18:44;7.00;99.90
19449;DHT22;9863;49.404;8.246;2023-05-18T04:23:38;7.00;99.90
19449;DHT22;9863;49.404;8.246;2023-05-18T04:26:06;6.90;99.90
19449;DHT22;9863;49.404;8.246;2023-05-18T04:33:31;6.90;99.90
19449;DHT22;9863;49.404;8.246;2023-05-18T04:35:59;6.90;99.90
19449;DHT22;9863;49.404;8.246;2023-05-18T04:38:32;7.00;99.90
19449;DHT22;9863;49.404;8.246;2023-05-18T04:43:31;7.00;99.90
19449;DHT22;9863;49.404;8.246;2023-05-18T04:45:58;7.00;99.90
19449;DHT22;9863;49.404;8.246;2023-05-18T04:48:25;7.00;99.90
19449;DHT22;9863;49.404;8.246;2023-05-18T04:50:53;7.00;99.90
19449;DHT22;9863;49.404;8.246;2023-05-18T04:58:16;7.10;99.90
19449;DHT22;9863;49.404;8.246;2023-05-18T05:00:44;7.20;99.90
19449;DHT22;9863;49.404;8.246;2023-05-18T05:03:11;7.20;99.90
19449;DHT22;9863;49.404;8.246;2023-05-18T05:05:38;7.30;99.90
19449;DHT22;9863;49.404;8.246;2023-05-18T05:08:05;7.30;99.90
19449;DHT22;9863;49.404;8.246;2023-05-18T05:10:33;7.30;99.90
19449;DHT22;9863;49.404;8.246;2023-05-18T05:13:00;7.40;99.90
19449;DHT22;9863;49.404;8.246;2023-05-18T05:15:27;7.50;99.90
19449;DHT22;9863;49.404;8.246;2023-05-18T05:17:57;7.50;99.90
19449;DHT22;9863;49.404;8.246;2023-05-18T05:20:24;7.50;99.90
19449;DHT22;9863;49.404;8.246;2023-05-18T05:22:51;7.60;99.90
19449;DHT22;9863;49.404;8.246;2023-05-18T05:27:46;7.70;99.90
19449;DHT22;9863;49.404;8.246;2023-05-18T05:35:09;7.80;99.90
19449;DHT22;9863;49.404;8.246;2023-05-18T05:37:36;7.90;99.90
19449;DHT22;9863;49.404;8.246;2023-05-18T05:40:04;7.90;99.90
19449;DHT22;9863;49.404;8.246;2023-05-18T05:42:32;7.90;99.90
19449;DHT22;9863;49.404;8.246;2023-05-18T05:47:27;8.10;99.90
19449;DHT22;9863;49.404;8.246;2023-05-18T05:49:54;8.10;99.90
19449;DHT22;9863;49.404;8.246;2023-05-18T05:52:21;8.10;99.90
19449;DHT22;9863;49.404;8.246;2023-05-18T05:57:16;8.30;99.90
19449;DHT22;9863;49.404;8.246;2023-05-18T05:59:43;8.40;99.90
19449;DHT22;9863;49.404;8.246;2023-05-18T06:02:10;7.50;99.90
19449;DHT22;9863;49.404;8.246;2023-05-18T06:04:38;8.50;99.90
19449;DHT22;9863;49.404;8.246;2023-05-18T06:07:05;8.50;99.90
19449;DHT22;9863;49.404;8.246;2023-05-18T06:09:33;8.60;99.90
19449;DHT22;9863;49.404;8.246;2023-05-18T06:12:00;8.60;99.90
19449;DHT22;9863;49.404;8.246;2023-05-18T06:14:27;8.80;99.90
19449;DHT22;9863;49.404;8.246;2023-05-18T06:16:54;8.90;99.90
19449;DHT22;9863;49.404;8.246;2023-05-18T06:19:21;9.20;99.90
19449;DHT22;9863;49.404;8.246;2023-05-18T06:21:48;9.10;99.90
19449;DHT22;9863;49.404;8.246;2023-05-18T06:24:16;9.10;99.90
19449;DHT22;9863;49.404;8.246;2023-05-18T06:26:43;9.30;99.90
19449;DHT22;9863;49.404;8.246;2023-05-18T06:34:06;9.30;99.90
19449;DHT22;9863;49.404;8.246;2023-05-18T06:39:00;9.50;99.90
19449;DHT22;9863;49.404;8.246;2023-05-18T06:43:55;9.50;99.90
19449;DHT22;9863;49.404;8.246;2023-05-18T06:46:26;9.70;99.90
19449;DHT22;9863;49.404;8.246;2023-05-18T06:48:53;10.00;99.90
19449;DHT22;9863;49.404;8.246;2023-05-18T06:51:20;10.10;99.90
19449;DHT22;9863;49.404;8.246;2023-05-18T06:53:47;10.10;99.90
19449;DHT22;9863;49.404;8.246;2023-05-18T06:58:44;10.40;99.90
19449;DHT22;9863;49.404;8.246;2023-05-18T07:01:12;10.60;99.90
19449;DHT22;9863;49.404;8.246;2023-05-18T07:03:39;10.60;99.90
19449;DHT22;9863;49.404;8.246;2023-05-18T07:06:06;10.70;99.90
19449;DHT22;9863;49.404;8.246;2023-05-18T07:11:03;11.00;99.90
19449;DHT22;9863;49.404;8.246;2023-05-18T07:13:31;11.10;99.90
19449;DHT22;9863;49.404;8.246;2023-05-18T07:15:58;11.20;99.90
19449;DHT22;9863;49.404;8.246;2023-05-18T07:18:25;11.20;99.90
19449;DHT22;9863;49.404;8.246;2023-05-18T07:20:52;11.30;99.90
19449;DHT22;9863;49.404;8.246;2023-05-18T07:23:19;11.60;99.90
19449;DHT22;9863;49.404;8.246;2023-05-18T07:25:48;11.80;99.90
19449;DHT22;9863;49.404;8.246;2023-05-18T07:28:15;11.80;99.90
19449;DHT22;9863;49.404;8.246;2023-05-18T07:30:42;11.90;99.90
19449;DHT22;9863;49.404;8.246;2023-05-18T07:33:10;12.00;99.90
19449;DHT22;9863;49.404;8.246;2023-05-18T07:35:37;12.00;99.90
19449;DHT22;9863;49.404;8.246;2023-05-18T07:40:31;12.10;99.90
19449;DHT22;9863;49.404;8.246;2023-05-18T07:42:59;12.30;99.90
19449;DHT22;9863;49.404;8.246;2023-05-18T07:45:26;12.20;99.90
19449;DHT22;9863;49.404;8.246;2023-05-18T07:47:53;12.50;99.90
19449;DHT22;9863;49.404;8.246;2023-05-18T07:50:20;12.60;99.90
19449;DHT22;9863;49.404;8.246;2023-05-18T07:52:47;12.90;99.90
19449;DHT22;9863;49.404;8.246;2023-05-18T07:55:19;13.10;99.90
19449;DHT22;9863;49.404;8.246;2023-05-18T07:57:59;13.00;99.90
19449;DHT22;9863;49.404;8.246;2023-05-18T08:03:10;13.20;99.90
19449;DHT22;9863;49.404;8.246;2023-05-18T08:05:37;13.20;99.90
19449;DHT22;9863;49.404;8.246;2023-05-18T08:08:04;13.20;99.90
19449;DHT22;9863;49.404;8.246;2023-05-18T08:10:32;13.50;99.90
19449;DHT22;9863;49.404;8.246;2023-05-18T08:13:00;13.70;99.90
19449;DHT22;9863;49.404;8.246;2023-05-18T08:15:27;13.80;99.90
19449;DHT22;9863;49.404;8.246;2023-05-18T08:17:54;13.90;99.90
19449;DHT22;9863;49.404;8.246;2023-05-18T08:20:22;13.90;99.90
19449;DHT22;9863;49.404;8.246;2023-05-18T08:25:18;13.70;99.90
19449;DHT22;9863;49.404;8.246;2023-05-18T08:27:46;14.00;99.90
19449;DHT22;9863;49.404;8.246;2023-05-18T08:30:14;14.40;99.90
19449;DHT22;9863;49.404;8.246;2023-05-18T08:32:41;14.60;99.90
19449;DHT22;9863;49.404;8.246;2023-05-18T08:35:09;14.50;99.90
19449;DHT22;9863;49.404;8.246;2023-05-18T08:37:36;14.90;99.90
19449;DHT22;9863;49.404;8.246;2023-05-18T08:40:04;14.90;99.90
19449;DHT22;9863;49.404;8.246;2023-05-18T08:42:47;15.00;99.90
19449;DHT22;9863;49.404;8.246;2023-05-18T08:45:35;14.90;99.90
19449;DHT22;9863;49.404;8.246;2023-05-18T08:48:12;15.30;99.90
19449;DHT22;9863;49.404;8.246;2023-05-18T08:50:43;15.60;99.90
19449;DHT22;9863;49.404;8.246;2023-05-18T08:53:10;15.60;99.90
19449;DHT22;9863;49.404;8.246;2023-05-18T08:55:39;15.70;99.90
19449;DHT22;9863;49.404;8.246;2023-05-18T08:58:08;15.60;99.90
19449;DHT22;9863;49.404;8.246;2023-05-18T09:00:37;15.40;99.90
19449;DHT22;9863;49.404;8.246;2023-05-18T09:03:05;15.60;99.90
19449;DHT22;9863;49.404;8.246;2023-05-18T09:05:32;15.70;99.90
19449;DHT22;9863;49.404;8.246;2023-05-18T09:08:00;15.70;99.90
19449;DHT22;9863;49.404;8.246;2023-05-18T09:10:31;15.60;99.90
19449;DHT22;9863;49.404;8.246;2023-05-18T09:13:00;15.50;99.90
19449;DHT22;9863;49.404;8.246;2023-05-18T09:15:28;15.50;99.90
19449;DHT22;9863;49.404;8.246;2023-05-18T09:17:56;15.60;99.90
19449;DHT22;9863;49.404;8.246;2023-05-18T09:20:25;15.80;99.90
19449;DHT22;9863;49.404;8.246;2023-05-18T09:22:53;15.80;99.90
19449;DHT22;9863;49.404;8.246;2023-05-18T09:25:22;15.70;99.90
19449;DHT22;9863;49.404;8.246;2023-05-18T09:27:50;16.30;99.90
19449;DHT22;9863;49.404;8.246;2023-05-18T09:30:19;16.60;99.90
19449;DHT22;9863;49.404;8.246;2023-05-18T09:32:46;20.90;99.90
19449;DHT22;9863;49.404;8.246;2023-05-18T09:35:14;16.80;99.90
19449;DHT22;9863;49.404;8.246;2023-05-18T09:37:41;16.80;99.90
19449;DHT22;9863;49.404;8.246;2023-05-18T09:40:10;17.10;99.90
19449;DHT22;9863;49.404;8.246;2023-05-18T09:42:41;17.40;99.90
19449;DHT22;9863;49.404;8.246;2023-05-18T09:45:22;17.40;99.90
19449;DHT22;9863;49.404;8.246;2023-05-18T09:47:54;17.80;99.90
19449;DHT22;9863;49.404;8.246;2023-05-18T09:50:23;17.80;99.90
19449;DHT22;9863;49.404;8.246;2023-05-18T09:52:51;18.10;99.90
19449;DHT22;9863;49.404;8.246;2023-05-18T09:55:19;17.90;99.90
19449;DHT22;9863;49.404;8.246;2023-05-18T09:57:48;17.80;99.90
19449;DHT22;9863;49.404;8.246;2023-05-18T10:00:18;17.80;99.90
19449;DHT22;9863;49.404;8.246;2023-05-18T10:02:49;18.20;99.90
19449;DHT22;9863;49.404;8.246;2023-05-18T10:05:28;17.80;99.90
19449;DHT22;9863;49.404;8.246;2023-05-18T10:08:02;18.90;99.90
19449;DHT22;9863;49.404;8.246;2023-05-18T10:17:55;17.90;99.90
19449;DHT22;9863;49.404;8.246;2023-05-18T10:20:23;18.50;99.90
19449;DHT22;9863;49.404;8.246;2023-05-18T10:22:54;18.50;98.50
19449;DHT22;9863;49.404;8.246;2023-05-18T10:25:25;18.50;99.00
19449;DHT22;9863;49.404;8.246;2023-05-18T10:27:59;18.70;97.00
19449;DHT22;9863;49.404;8.246;2023-05-18T10:30:27;18.40;97.20
19449;DHT22;9863;49.404;8.246;2023-05-18T10:32:55;18.50;99.70
19449;DHT22;9863;49.404;8.246;2023-05-18T10:35:24;18.60;98.80
19449;DHT22;9863;49.404;8.246;2023-05-18T10:37:54;18.60;99.90
19449;DHT22;9863;49.404;8.246;2023-05-18T10:42:52;18.60;98.90
19449;DHT22;9863;49.404;8.246;2023-05-18T10:45:24;18.40;98.10
19449;DHT22;9863;49.404;8.246;2023-05-18T10:50:22;19.40;96.40
19449;DHT22;9863;49.404;8.246;2023-05-18T10:52:50;19.20;97.80
19449;DHT22;9863;49.404;8.246;2023-05-18T10:57:53;19.20;99.30
19449;DHT22;9863;49.404;8.246;2023-05-18T11:00:23;19.20;99.30
19449;DHT22;9863;49.404;8.246;2023-05-18T11:02:51;19.70;99.80
19449;DHT22;9863;49.404;8.246;2023-05-18T11:05:24;19.30;97.40
19449;DHT22;9863;49.404;8.246;2023-05-18T11:07:59;19.00;97.10
19449;DHT22;9863;49.404;8.246;2023-05-18T11:10:43;19.30;97.90
19449;DHT22;9863;49.404;8.246;2023-05-18T11:13:13;20.10;99.60
19449;DHT22;9863;49.404;8.246;2023-05-18T11:16:01;20.00;98.10
19449;DHT22;9863;49.404;8.246;2023-05-18T11:18:43;19.60;97.10
19449;DHT22;9863;49.404;8.246;2023-05-18T11:26:48;20.20;95.90
19449;DHT22;9863;49.404;8.246;2023-05-18T11:29:33;20.10;96.10
19449;DHT22;9863;49.404;8.246;2023-05-18T11:32:02;20.40;96.80
19449;DHT22;9863;49.404;8.246;2023-05-18T11:34:49;20.40;92.00
19449;DHT22;9863;49.404;8.246;2023-05-18T11:40:11;20.60;96.50
19449;DHT22;9863;49.404;8.246;2023-05-18T11:45:09;20.70;94.60
19449;DHT22;9863;49.404;8.246;2023-05-18T11:50:11;20.40;93.60
19449;DHT22;9863;49.404;8.246;2023-05-18T11:52:46;20.80;94.20
19449;DHT22;9863;49.404;8.246;2023-05-18T12:02:44;20.40;94.00
19449;DHT22;9863;49.404;8.246;2023-05-18T12:10:12;21.30;94.40
19449;DHT22;9863;49.404;8.246;2023-05-18T12:15:10;21.10;92.70
19449;DHT22;9863;49.404;8.246;2023-05-18T12:17:48;20.60;94.20
19449;DHT22;9863;49.404;8.246;2023-05-18T12:20:22;20.70;93.10
19449;DHT22;9863;49.404;8.246;2023-05-18T12:25:25;21.00;93.60
19449;DHT22;9863;49.404;8.246;2023-05-18T12:30:25;21.60;92.10
19449;DHT22;9863;49.404;8.246;2023-05-18T12:35:30;21.80;95.80
19449;DHT22;9863;49.404;8.246;2023-05-18T12:40:33;21.50;93.10
19449;DHT22;9863;49.404;8.246;2023-05-18T12:45:43;21.70;91.00
19449;DHT22;9863;49.404;8.246;2023-05-18T12:50:46;22.10;93.60
19449;DHT22;9863;49.404;8.246;2023-05-18T12:58:12;21.50;91.30
19449;DHT22;9863;49.404;8.246;2023-05-18T13:00:47;21.90;92.70
19449;DHT22;9863;49.404;8.246;2023-05-18T13:03:18;22.50;92.80
19449;DHT22;9863;49.404;8.246;2023-05-18T13:06:05;22.30;93.70
19449;DHT22;9863;49.404;8.246;2023-05-18T13:08:34;22.30;91.80
19449;DHT22;9863;49.404;8.246;2023-05-18T13:11:07;22.50;93.10
19449;DHT22;9863;49.404;8.246;2023-05-18T13:14:01;22.80;94.00
19449;DHT22;9863;49.404;8.246;2023-05-18T13:16:32;22.70;90.50
19449;DHT22;9863;49.404;8.246;2023-05-18T13:19:03;22.50;88.00
19449;DHT22;9863;49.404;8.246;2023-05-18T13:21:33;22.20;92.00
19449;DHT22;9863;49.404;8.246;2023-05-18T13:24:02;22.30;90.10
19449;DHT22;9863;49.404;8.246;2023-05-18T14:10:57;22.60;87.70
19449;DHT22;9863;49.404;8.246;2023-05-18T15:00:13;23.00;90.20
19449;DHT22;9863;49.404;8.246;2023-05-18T15:10:05;22.00;90.40
19449;DHT22;9863;49.404;8.246;2023-05-18T15:22:24;22.30;90.00
19449;DHT22;9863;49.404;8.246;2023-05-18T15:34:42;22.20;87.00
19449;DHT22;9863;49.404;8.246;2023-05-18T15:39:42;23.00;89.10
19449;DHT22;9863;49.404;8.246;2023-05-18T15:42:10;23.20;84.10
19449;DHT22;9863;49.404;8.246;2023-05-18T15:44:45;23.30;87.70
19449;DHT22;9863;49.404;8.246;2023-05-18T15:57:26;22.00;88.40
19449;DHT22;9863;49.404;8.246;2023-05-18T16:04:51;21.50;90.10
19449;DHT22;9863;49.404;8.246;2023-05-18T16:07:20;22.00;86.50
19449;DHT22;9863;49.404;8.246;2023-05-18T16:12:15;22.50;88.00
19449;DHT22;9863;49.404;8.246;2023-05-18T16:46:47;21.00;88.00
19449;DHT22;9863;49.404;8.246;2023-05-18T17:11:25;20.70;85.50
19449;DHT22;9863;49.404;8.246;2023-05-18T17:31:11;20.50;90.10
19449;DHT22;9863;49.404;8.246;2023-05-18T17:33:40;20.50;88.70
19449;DHT22;9863;49.404;8.246;2023-05-18T17:38:44;20.30;88.00
19449;DHT22;9863;49.404;8.246;2023-05-18T17:43:40;20.00;90.50
19449;DHT22;9863;49.404;8.246;2023-05-18T17:48:35;19.90;88.30
19449;DHT22;9863;49.404;8.246;2023-05-18T17:55:57;19.40;90.10
19449;DHT22;9863;49.404;8.246;2023-05-18T18:13:10;18.90;90.70
19449;DHT22;9863;49.404;8.246;2023-05-18T18:20:32;18.50;91.00
19449;DHT22;9863;49.404;8.246;2023-05-18T18:23:02;18.20;90.30
19449;DHT22;9863;49.404;8.246;2023-05-18T18:25:31;18.10;90.30
19449;DHT22;9863;49.404;8.246;2023-05-18T18:27:58;18.20;91.30
19449;DHT22;9863;49.404;8.246;2023-05-18T18:30:25;18.00;91.30
19449;DHT22;9863;49.404;8.246;2023-05-18T18:37:49;17.80;92.90
19449;DHT22;9863;49.404;8.246;2023-05-18T18:50:09;17.30;93.40
19449;DHT22;9863;49.404;8.246;2023-05-18T18:55:04;16.20;92.10
19449;DHT22;9863;49.404;8.246;2023-05-18T19:00:00;16.70;93.50
19449;DHT22;9863;49.404;8.246;2023-05-18T19:04:56;16.70;93.10
19449;DHT22;9863;49.404;8.246;2023-05-18T19:07:23;16.40;94.30
19449;DHT22;9863;49.404;8.246;2023-05-18T19:32:04;15.70;96.20
19449;DHT22;9863;49.404;8.246;2023-05-18T19:51:44;15.60;98.50
19449;DHT22;9863;49.404;8.246;2023-05-18T19:54:11;15.60;99.50
19449;DHT22;9863;49.404;8.246;2023-05-18T20:04:01;15.00;96.60
19449;DHT22;9863;49.404;8.246;2023-05-18T21:00:48;13.50;99.90
19449;DHT22;9863;49.404;8.246;2023-05-18T21:50:07;11.90;99.90
19449;DHT22;9863;49.404;8.246;2023-05-18T21:57:31;11.80;99.90
19449;DHT22;9863;49.404;8.246;2023-05-18T22:02:26;11.80;99.90
19449;DHT22;9863;49.404;8.246;2023-05-18T23:06:48;11.00;99.90
19449;DHT22;9863;49.404;8.246;2023-05-18T23:26:40;10.90;99.90
19449;DHT22;9863;49.404;8.246;2023-05-18T23:31:36;10.80;99.90
19449;DHT22;9863;49.404;8.246;2023-05-18T23:36:32;10.80;99.90
19449;DHT22;9863;49.404;8.246;2023-05-18T23:51:28;10.60;99.90
19449;DHT22;9863;49.404;8.246;2023-05-18T23:53:59;10.70;99.90
19449;DHT22;9863;49.404;8.246;2023-05-18T23:56:27;10.60;99.90
19449;DHT22;9863;49.404;8.246;2023-05-18T23:58:55;10.60;99.90
